sensor_id;sensor_type;location;lat;lon;timestamp;pressure;altitude;pressure_sealevel;temperature;humidity
62237;BME280;69163;48.778;2.308;2023-05-21T00:02:13;100825.62;;;17.10;40.43
62237;BME280;69163;48.778;2.308;2023-05-21T00:04:38;100827.05;;;17.09;40.41
62237;BME280;69163;48.778;2.308;2023-05-21T00:07:03;100824.33;;;17.07;40.41
62237;BME280;69163;48.778;2.308;2023-05-21T00:09:28;100828.54;;;16.86;40.33
62237;BME280;69163;48.778;2.308;2023-05-21T00:11:53;100825.46;;;17.07;40.34
62237;BME280;69163;48.778;2.308;2023-05-21T00:14:19;100825.43;;;16.84;40.35
62237;BME280;69163;48.778;2.308;2023-05-21T00:16:44;100824.45;;;16.84;40.31
62237;BME280;69163;48.778;2.308;2023-05-21T00:19:09;100816.36;;;17.09;40.24
62237;BME280;69163;48.778;2.308;2023-05-21T00:21:34;100812.36;;;17.09;40.21
62237;BME280;69163;48.778;2.308;2023-05-21T00:23:59;100811.25;;;16.86;40.15
62237;BME280;69163;48.778;2.308;2023-05-21T00:26:24;100814.04;;;17.12;40.12
62237;BME280;69163;48.778;2.308;2023-05-21T00:28:50;100812.49;;;16.87;40.14
62237;BME280;69163;48.778;2.308;2023-05-21T00:31:15;100816.26;;;16.85;40.11
62237;BME280;69163;48.778;2.308;2023-05-21T00:33:40;100816.19;;;17.09;40.08
62237;BME280;69163;48.778;2.308;2023-05-21T00:36:06;100813.01;;;17.09;40.08
62237;BME280;69163;48.778;2.308;2023-05-21T00:38:30;100808.59;;;16.85;40.03
62237;BME280;69163;48.778;2.308;2023-05-21T00:40:56;100806.03;;;17.10;39.97
62237;BME280;69163;48.778;2.308;2023-05-21T00:43:21;100801.92;;;17.11;39.97
62237;BME280;69163;48.778;2.308;2023-05-21T00:45:46;100803.51;;;16.88;39.92
62237;BME280;69163;48.778;2.308;2023-05-21T00:48:12;100798.18;;;17.12;39.88
62237;BME280;69163;48.778;2.308;2023-05-21T00:50:37;100797.20;;;16.88;39.89
62237;BME280;69163;48.778;2.308;2023-05-21T00:53:02;100792.38;;;16.86;39.89
62237;BME280;69163;48.778;2.308;2023-05-21T00:55:28;100793.92;;;16.88;39.82
62237;BME280;69163;48.778;2.308;2023-05-21T00:57:53;100794.69;;;16.87;39.80
62237;BME280;69163;48.778;2.308;2023-05-21T01:00:18;100786.40;;;17.11;39.76
62237;BME280;69163;48.778;2.308;2023-05-21T01:02:44;100787.69;;;17.14;39.71
62237;BME280;69163;48.778;2.308;2023-05-21T01:05:10;100782.34;;;16.90;39.68
62237;BME280;69163;48.778;2.308;2023-05-21T01:07:36;100781.33;;;16.91;39.64
62237;BME280;69163;48.778;2.308;2023-05-21T01:10:00;100782.73;;;17.15;39.60
62237;BME280;69163;48.778;2.308;2023-05-21T01:12:24;100780.79;;;16.94;39.57
62237;BME280;69163;48.778;2.308;2023-05-21T01:14:50;100775.18;;;17.15;39.59
62237;BME280;69163;48.778;2.308;2023-05-21T01:17:15;100777.14;;;16.97;39.52
62237;BME280;69163;48.778;2.308;2023-05-21T01:19:40;100780.56;;;16.77;39.46
62237;BME280;69163;48.778;2.308;2023-05-21T01:22:06;100780.77;;;16.99;39.42
62237;BME280;69163;48.778;2.308;2023-05-21T01:24:31;100786.66;;;17.02;39.36
62237;BME280;69163;48.778;2.308;2023-05-21T01:26:58;100790.91;;;17.01;39.34
62237;BME280;69163;48.778;2.308;2023-05-21T01:29:21;100785.00;;;17.28;39.27
62237;BME280;69163;48.778;2.308;2023-05-21T01:31:55;100786.83;;;17.05;39.24
62237;BME280;69163;48.778;2.308;2023-05-21T01:34:13;100791.78;;;17.14;39.15
62237;BME280;69163;48.778;2.308;2023-05-21T01:36:42;100797.01;;;17.15;39.15
62237;BME280;69163;48.778;2.308;2023-05-21T01:39:06;100792.41;;;17.18;39.09
62237;BME280;69163;48.778;2.308;2023-05-21T01:41:29;100791.21;;;17.19;39.08
62237;BME280;69163;48.778;2.308;2023-05-21T01:43:55;100787.82;;;17.21;39.03
62237;BME280;69163;48.778;2.308;2023-05-21T01:46:24;100788.00;;;17.22;39.04
62237;BME280;69163;48.778;2.308;2023-05-21T01:48:43;100784.85;;;17.25;38.99
62237;BME280;69163;48.778;2.308;2023-05-21T01:51:10;100785.16;;;17.76;38.97
62237;BME280;69163;48.778;2.308;2023-05-21T01:53:34;100786.81;;;17.31;38.95
62237;BME280;69163;48.778;2.308;2023-05-21T01:55:59;100783.76;;;17.33;38.92
62237;BME280;69163;48.778;2.308;2023-05-21T01:58:25;100785.66;;;17.38;38.86
62237;BME280;69163;48.778;2.308;2023-05-21T02:00:50;100785.97;;;17.41;38.79
62237;BME280;69163;48.778;2.308;2023-05-21T02:03:14;100779.68;;;17.45;38.76
62237;BME280;69163;48.778;2.308;2023-05-21T02:05:40;100785.49;;;17.67;38.75
62237;BME280;69163;48.778;2.308;2023-05-21T02:08:06;100791.39;;;17.46;38.71
62237;BME280;69163;48.778;2.308;2023-05-21T02:10:31;100789.82;;;17.73;38.70
62237;BME280;69163;48.778;2.308;2023-05-21T02:12:56;100794.32;;;17.50;38.69
62237;BME280;69163;48.778;2.308;2023-05-21T02:15:20;100796.84;;;17.07;38.64
62237;BME280;69163;48.778;2.308;2023-05-21T02:17:46;100799.52;;;17.54;38.62
62237;BME280;69163;48.778;2.308;2023-05-21T02:20:12;100799.80;;;17.54;38.60
62237;BME280;69163;48.778;2.308;2023-05-21T02:22:37;100801.74;;;17.54;38.58
62237;BME280;69163;48.778;2.308;2023-05-21T02:25:02;100803.52;;;17.50;38.64
62237;BME280;69163;48.778;2.308;2023-05-21T02:27:27;100803.92;;;17.53;38.60
62237;BME280;69163;48.778;2.308;2023-05-21T02:29:53;100801.23;;;17.55;38.54
62237;BME280;69163;48.778;2.308;2023-05-21T02:32:18;100798.24;;;17.56;38.54
62237;BME280;69163;48.778;2.308;2023-05-21T02:34:44;100792.25;;;17.54;38.56
62237;BME280;69163;48.778;2.308;2023-05-21T02:37:09;100791.18;;;17.77;38.55
62237;BME280;69163;48.778;2.308;2023-05-21T02:39:34;100791.80;;;17.55;38.54
62237;BME280;69163;48.778;2.308;2023-05-21T02:41:59;100790.42;;;17.31;38.53
62237;BME280;69163;48.778;2.308;2023-05-21T02:44:24;100784.29;;;17.87;38.44
62237;BME280;69163;48.778;2.308;2023-05-21T02:46:50;100784.67;;;17.70;38.31
62237;BME280;69163;48.778;2.308;2023-05-21T02:49:15;100785.85;;;17.66;38.35
62237;BME280;69163;48.778;2.308;2023-05-21T02:51:41;100782.57;;;17.69;38.35
62237;BME280;69163;48.778;2.308;2023-05-21T02:54:06;100779.41;;;17.74;38.27
62237;BME280;69163;48.778;2.308;2023-05-21T02:56:31;100780.09;;;17.58;38.19
62237;BME280;69163;48.778;2.308;2023-05-21T02:58:56;100778.07;;;17.81;38.31
62237;BME280;69163;48.778;2.308;2023-05-21T03:01:22;100778.33;;;17.86;38.69
62237;BME280;69163;48.778;2.308;2023-05-21T03:03:47;100779.07;;;17.64;39.00
62237;BME280;69163;48.778;2.308;2023-05-21T03:06:13;100783.55;;;17.85;39.46
62237;BME280;69163;48.778;2.308;2023-05-21T03:08:38;100788.90;;;17.86;39.67
62237;BME280;69163;48.778;2.308;2023-05-21T03:11:03;100789.07;;;17.36;39.84
62237;BME280;69163;48.778;2.308;2023-05-21T03:13:29;100787.03;;;18.03;40.11
62237;BME280;69163;48.778;2.308;2023-05-21T03:15:54;100786.88;;;17.32;40.18
62237;BME280;69163;48.778;2.308;2023-05-21T03:18:19;100785.21;;;17.34;40.27
62237;BME280;69163;48.778;2.308;2023-05-21T03:20:45;100787.58;;;17.79;40.37
62237;BME280;69163;48.778;2.308;2023-05-21T03:23:10;100790.96;;;17.53;40.46
62237;BME280;69163;48.778;2.308;2023-05-21T03:25:35;100791.88;;;17.56;40.42
62237;BME280;69163;48.778;2.308;2023-05-21T03:28:01;100790.58;;;17.78;40.45
62237;BME280;69163;48.778;2.308;2023-05-21T03:30:26;100788.88;;;17.74;40.52
62237;BME280;69163;48.778;2.308;2023-05-21T03:32:52;100791.95;;;17.75;40.52
62237;BME280;69163;48.778;2.308;2023-05-21T03:35:17;100797.19;;;17.79;40.51
62237;BME280;69163;48.778;2.308;2023-05-21T03:37:43;100795.82;;;17.30;40.51
62237;BME280;69163;48.778;2.308;2023-05-21T03:40:09;100798.18;;;17.82;40.43
62237;BME280;69163;48.778;2.308;2023-05-21T03:42:33;100795.23;;;17.84;40.34
62237;BME280;69163;48.778;2.308;2023-05-21T03:44:58;100795.05;;;17.33;40.37
62237;BME280;69163;48.778;2.308;2023-05-21T03:47:23;100796.54;;;17.80;40.31
62237;BME280;69163;48.778;2.308;2023-05-21T03:49:49;100804.04;;;17.84;40.24
62237;BME280;69163;48.778;2.308;2023-05-21T03:52:14;100801.73;;;17.56;40.34
62237;BME280;69163;48.778;2.308;2023-05-21T03:54:40;100799.57;;;17.82;40.15
62237;BME280;69163;48.778;2.308;2023-05-21T03:57:05;100799.05;;;17.56;40.21
62237;BME280;69163;48.778;2.308;2023-05-21T03:59:30;100801.07;;;17.31;40.20
62237;BME280;69163;48.778;2.308;2023-05-21T04:01:56;100803.57;;;17.57;40.15
62237;BME280;69163;48.778;2.308;2023-05-21T04:04:22;100800.97;;;17.59;40.07
62237;BME280;69163;48.778;2.308;2023-05-21T04:06:49;100801.99;;;17.39;40.00
62237;BME280;69163;48.778;2.308;2023-05-21T04:09:12;100803.17;;;17.63;39.99
62237;BME280;69163;48.778;2.308;2023-05-21T04:11:38;100804.24;;;17.67;39.87
62237;BME280;69163;48.778;2.308;2023-05-21T04:14:03;100810.86;;;17.44;39.87
62237;BME280;69163;48.778;2.308;2023-05-21T04:16:28;100817.95;;;17.94;39.83
62237;BME280;69163;48.778;2.308;2023-05-21T04:18:54;100817.21;;;17.91;39.78
62237;BME280;69163;48.778;2.308;2023-05-21T04:21:19;100826.17;;;17.41;39.81
62237;BME280;69163;48.778;2.308;2023-05-21T04:23:44;100821.16;;;17.94;39.66
62237;BME280;69163;48.778;2.308;2023-05-21T04:26:10;100823.50;;;17.88;39.76
62237;BME280;69163;48.778;2.308;2023-05-21T04:28:35;100826.26;;;17.70;39.65
62237;BME280;69163;48.778;2.308;2023-05-21T04:31:01;100827.18;;;17.83;39.79
62237;BME280;69163;48.778;2.308;2023-05-21T04:33:26;100826.00;;;17.61;39.74
62237;BME280;69163;48.778;2.308;2023-05-21T04:35:51;100825.33;;;17.36;39.72
62237;BME280;69163;48.778;2.308;2023-05-21T04:38:17;100819.21;;;17.62;39.64
62237;BME280;69163;48.778;2.308;2023-05-21T04:40:41;100817.39;;;17.61;39.66
62237;BME280;69163;48.778;2.308;2023-05-21T04:43:07;100819.16;;;17.89;39.55
62237;BME280;69163;48.778;2.308;2023-05-21T04:45:32;100822.75;;;17.88;39.51
62237;BME280;69163;48.778;2.308;2023-05-21T04:47:57;100826.60;;;17.62;39.47
62237;BME280;69163;48.778;2.308;2023-05-21T04:50:23;100828.92;;;17.62;39.48
62237;BME280;69163;48.778;2.308;2023-05-21T04:52:48;100831.91;;;17.63;39.47
62237;BME280;69163;48.778;2.308;2023-05-21T04:55:13;100830.01;;;17.90;39.39
62237;BME280;69163;48.778;2.308;2023-05-21T04:57:38;100828.21;;;17.92;39.33
62237;BME280;69163;48.778;2.308;2023-05-21T05:00:04;100824.75;;;17.69;39.29
62237;BME280;69163;48.778;2.308;2023-05-21T05:02:29;100825.88;;;18.15;39.24
62237;BME280;69163;48.778;2.308;2023-05-21T05:04:54;100827.05;;;17.73;39.19
62237;BME280;69163;48.778;2.308;2023-05-21T05:07:20;100831.30;;;17.42;39.24
62237;BME280;69163;48.778;2.308;2023-05-21T05:09:45;100831.53;;;17.93;39.14
62237;BME280;69163;48.778;2.308;2023-05-21T05:12:11;100837.82;;;17.88;39.20
62237;BME280;69163;48.778;2.308;2023-05-21T05:14:35;100837.67;;;17.69;39.07
62237;BME280;69163;48.778;2.308;2023-05-21T05:17:01;100832.59;;;17.69;39.05
62237;BME280;69163;48.778;2.308;2023-05-21T05:19:26;100827.19;;;17.91;39.09
62237;BME280;69163;48.778;2.308;2023-05-21T05:21:51;100824.37;;;17.71;39.03
62237;BME280;69163;48.778;2.308;2023-05-21T05:24:17;100828.44;;;17.92;39.06
62237;BME280;69163;48.778;2.308;2023-05-21T05:26:43;100824.14;;;17.95;39.03
62237;BME280;69163;48.778;2.308;2023-05-21T05:29:08;100829.50;;;17.93;38.99
62237;BME280;69163;48.778;2.308;2023-05-21T05:31:34;100828.07;;;17.51;38.82
62237;BME280;69163;48.778;2.308;2023-05-21T05:33:59;100831.12;;;17.50;38.86
62237;BME280;69163;48.778;2.308;2023-05-21T05:36:24;100832.06;;;17.98;38.86
62237;BME280;69163;48.778;2.308;2023-05-21T05:38:51;100834.16;;;17.52;38.81
62237;BME280;69163;48.778;2.308;2023-05-21T05:41:15;100830.95;;;17.78;38.78
62237;BME280;69163;48.778;2.308;2023-05-21T05:43:40;100835.12;;;18.03;38.76
62237;BME280;69163;48.778;2.308;2023-05-21T05:46:06;100832.34;;;17.80;38.71
62237;BME280;69163;48.778;2.308;2023-05-21T05:48:31;100828.00;;;17.52;38.73
62237;BME280;69163;48.778;2.308;2023-05-21T05:50:55;100821.99;;;18.06;38.58
62237;BME280;69163;48.778;2.308;2023-05-21T05:53:21;100814.88;;;17.79;38.58
62237;BME280;69163;48.778;2.308;2023-05-21T05:55:46;100817.43;;;17.63;38.49
62237;BME280;69163;48.778;2.308;2023-05-21T05:58:11;100823.83;;;18.10;38.46
62237;BME280;69163;48.778;2.308;2023-05-21T06:00:37;100822.73;;;18.09;38.50
62237;BME280;69163;48.778;2.308;2023-05-21T06:03:02;100827.48;;;17.59;38.48
62237;BME280;69163;48.778;2.308;2023-05-21T06:05:28;100826.98;;;18.06;38.50
62237;BME280;69163;48.778;2.308;2023-05-21T06:07:54;100825.61;;;17.88;38.38
62237;BME280;69163;48.778;2.308;2023-05-21T06:10:18;100829.05;;;18.14;38.28
62237;BME280;69163;48.778;2.308;2023-05-21T06:12:44;100827.21;;;18.10;38.31
62237;BME280;69163;48.778;2.308;2023-05-21T06:15:10;100827.38;;;17.94;38.20
62237;BME280;69163;48.778;2.308;2023-05-21T06:17:34;100826.97;;;18.17;38.17
62237;BME280;69163;48.778;2.308;2023-05-21T06:20:00;100824.89;;;17.83;38.01
62237;BME280;69163;48.778;2.308;2023-05-21T06:22:25;100830.91;;;17.78;38.04
62237;BME280;69163;48.778;2.308;2023-05-21T06:24:50;100838.83;;;18.57;37.94
62237;BME280;69163;48.778;2.308;2023-05-21T06:27:15;100847.44;;;17.91;37.84
62237;BME280;69163;48.778;2.308;2023-05-21T06:29:41;100850.44;;;17.88;37.84
62237;BME280;69163;48.778;2.308;2023-05-21T06:32:07;100849.08;;;18.45;37.74
62237;BME280;69163;48.778;2.308;2023-05-21T06:34:32;100844.50;;;18.36;37.84
62237;BME280;69163;48.778;2.308;2023-05-21T06:36:56;100845.60;;;18.16;37.76
62237;BME280;69163;48.778;2.308;2023-05-21T06:39:23;100843.63;;;18.38;37.76
62237;BME280;69163;48.778;2.308;2023-05-21T06:41:48;100840.86;;;17.94;37.76
62237;BME280;69163;48.778;2.308;2023-05-21T06:44:14;100835.86;;;18.41;37.74
62237;BME280;69163;48.778;2.308;2023-05-21T06:46:39;100835.09;;;18.30;37.53
62237;BME280;69163;48.778;2.308;2023-05-21T06:49:04;100836.51;;;18.01;37.57
62237;BME280;69163;48.778;2.308;2023-05-21T06:51:29;100832.66;;;17.98;37.59
62237;BME280;69163;48.778;2.308;2023-05-21T06:53:54;100832.62;;;18.22;37.60
62237;BME280;69163;48.778;2.308;2023-05-21T06:56:20;100834.13;;;18.11;37.44
62237;BME280;69163;48.778;2.308;2023-05-21T06:58:45;100839.42;;;18.63;37.37
62237;BME280;69163;48.778;2.308;2023-05-21T07:01:11;100837.98;;;18.28;37.22
62237;BME280;69163;48.778;2.308;2023-05-21T07:03:36;100832.91;;;18.30;37.16
62237;BME280;69163;48.778;2.308;2023-05-21T07:06:01;100834.41;;;18.89;37.03
62237;BME280;69163;48.778;2.308;2023-05-21T07:08:27;100839.54;;;18.67;37.00
62237;BME280;69163;48.778;2.308;2023-05-21T07:10:52;100842.48;;;18.96;36.90
62237;BME280;69163;48.778;2.308;2023-05-21T07:13:18;100844.03;;;18.91;36.95
62237;BME280;69163;48.778;2.308;2023-05-21T07:15:43;100843.21;;;18.72;36.87
62237;BME280;69163;48.778;2.308;2023-05-21T07:18:08;100843.20;;;18.99;36.82
62237;BME280;69163;48.778;2.308;2023-05-21T07:20:33;100841.57;;;18.53;36.77
62237;BME280;69163;48.778;2.308;2023-05-21T07:22:59;100843.78;;;18.62;36.68
62237;BME280;69163;48.778;2.308;2023-05-21T07:25:24;100842.76;;;18.86;36.65
62237;BME280;69163;48.778;2.308;2023-05-21T07:27:49;100844.07;;;18.65;36.57
62237;BME280;69163;48.778;2.308;2023-05-21T07:30:14;100849.77;;;18.70;36.52
62237;BME280;69163;48.778;2.308;2023-05-21T07:32:39;100851.70;;;19.18;36.48
62237;BME280;69163;48.778;2.308;2023-05-21T07:35:05;100851.73;;;18.75;36.42
62237;BME280;69163;48.778;2.308;2023-05-21T07:37:30;100852.55;;;18.70;36.49
62237;BME280;69163;48.778;2.308;2023-05-21T07:39:57;100853.42;;;19.20;36.45
62237;BME280;69163;48.778;2.308;2023-05-21T07:42:21;100851.99;;;18.72;36.44
62237;BME280;69163;48.778;2.308;2023-05-21T07:44:46;100852.79;;;18.77;36.43
62237;BME280;69163;48.778;2.308;2023-05-21T07:47:11;100848.47;;;19.04;36.35
62237;BME280;69163;48.778;2.308;2023-05-21T07:49:37;100852.38;;;19.34;36.24
62237;BME280;69163;48.778;2.308;2023-05-21T07:52:01;100847.27;;;18.85;36.24
62237;BME280;69163;48.778;2.308;2023-05-21T07:54:28;100843.78;;;19.12;36.20
62237;BME280;69163;48.778;2.308;2023-05-21T07:56:53;100849.85;;;19.42;36.14
62237;BME280;69163;48.778;2.308;2023-05-21T07:59:18;100847.75;;;19.17;36.16
62237;BME280;69163;48.778;2.308;2023-05-21T08:01:44;100848.33;;;18.69;36.14
62237;BME280;69163;48.778;2.308;2023-05-21T08:04:10;100844.54;;;18.98;36.04
62237;BME280;69163;48.778;2.308;2023-05-21T08:06:35;100837.36;;;19.26;35.96
62237;BME280;69163;48.778;2.308;2023-05-21T08:09:00;100850.45;;;19.08;35.90
62237;BME280;69163;48.778;2.308;2023-05-21T08:11:25;100840.52;;;19.13;35.82
62237;BME280;69163;48.778;2.308;2023-05-21T08:13:50;100837.43;;;19.39;35.84
62237;BME280;69163;48.778;2.308;2023-05-21T08:16:15;100837.39;;;19.18;35.83
62237;BME280;69163;48.778;2.308;2023-05-21T08:18:41;100831.96;;;19.21;35.73
62237;BME280;69163;48.778;2.308;2023-05-21T08:21:06;100844.08;;;19.23;35.69
62237;BME280;69163;48.778;2.308;2023-05-21T08:23:31;100828.02;;;19.30;35.66
62237;BME280;69163;48.778;2.308;2023-05-21T08:25:57;100826.93;;;19.31;35.62
62237;BME280;69163;48.778;2.308;2023-05-21T08:28:22;100821.40;;;19.32;35.58
62237;BME280;69163;48.778;2.308;2023-05-21T08:30:47;100826.33;;;19.32;35.55
62237;BME280;69163;48.778;2.308;2023-05-21T08:33:13;100825.64;;;19.32;35.58
62237;BME280;69163;48.778;2.308;2023-05-21T08:35:37;100829.52;;;19.31;35.50
62237;BME280;69163;48.778;2.308;2023-05-21T08:38:02;100831.75;;;19.35;35.51
62237;BME280;69163;48.778;2.308;2023-05-21T08:40:29;100828.47;;;19.34;35.55
62237;BME280;69163;48.778;2.308;2023-05-21T08:42:54;100837.47;;;19.37;35.46
62237;BME280;69163;48.778;2.308;2023-05-21T08:45:21;100823.81;;;19.85;35.46
62237;BME280;69163;48.778;2.308;2023-05-21T08:47:44;100819.64;;;19.38;35.35
62237;BME280;69163;48.778;2.308;2023-05-21T08:50:11;100817.21;;;19.38;35.38
62237;BME280;69163;48.778;2.308;2023-05-21T08:52:34;100819.68;;;19.58;35.43
62237;BME280;69163;48.778;2.308;2023-05-21T08:55:01;100819.53;;;19.38;35.42
62237;BME280;69163;48.778;2.308;2023-05-21T08:57:26;100821.06;;;19.33;35.47
62237;BME280;69163;48.778;2.308;2023-05-21T08:59:51;100822.35;;;19.39;35.39
62237;BME280;69163;48.778;2.308;2023-05-21T09:02:17;100822.19;;;19.40;35.36
62237;BME280;69163;48.778;2.308;2023-05-21T09:04:42;100821.16;;;19.64;35.35
62237;BME280;69163;48.778;2.308;2023-05-21T09:07:07;100816.18;;;19.66;35.30
62237;BME280;69163;48.778;2.308;2023-05-21T09:09:33;100817.55;;;19.37;35.39
62237;BME280;69163;48.778;2.308;2023-05-21T09:11:57;100821.52;;;19.40;35.34
62237;BME280;69163;48.778;2.308;2023-05-21T09:14:23;100827.36;;;19.42;35.30
62237;BME280;69163;48.778;2.308;2023-05-21T09:16:47;100830.69;;;19.45;35.29
62237;BME280;69163;48.778;2.308;2023-05-21T09:19:13;100837.06;;;19.66;35.29
62237;BME280;69163;48.778;2.308;2023-05-21T09:21:39;100834.07;;;19.45;35.26
62237;BME280;69163;48.778;2.308;2023-05-21T09:24:04;100825.90;;;19.43;35.25
62237;BME280;69163;48.778;2.308;2023-05-21T09:26:30;100823.35;;;19.41;35.29
62237;BME280;69163;48.778;2.308;2023-05-21T09:28:57;100820.27;;;19.42;35.24
62237;BME280;69163;48.778;2.308;2023-05-21T09:31:21;100819.96;;;19.66;35.27
62237;BME280;69163;48.778;2.308;2023-05-21T09:33:45;100823.41;;;19.42;35.31
62237;BME280;69163;48.778;2.308;2023-05-21T09:36:10;100813.85;;;19.47;35.23
62237;BME280;69163;48.778;2.308;2023-05-21T09:38:35;100820.50;;;19.93;35.25
62237;BME280;69163;48.778;2.308;2023-05-21T09:41:04;100818.01;;;19.71;35.19
62237;BME280;69163;48.778;2.308;2023-05-21T09:43:26;100819.14;;;19.37;35.47
62237;BME280;69163;48.778;2.308;2023-05-21T09:45:53;100818.71;;;19.69;36.36
62237;BME280;69163;48.778;2.308;2023-05-21T09:50:42;100811.44;;;19.73;37.23
62237;BME280;69163;48.778;2.308;2023-05-21T09:53:11;100813.62;;;19.67;37.57
62237;BME280;69163;48.778;2.308;2023-05-21T09:55:35;100810.52;;;19.84;37.41
62237;BME280;69163;48.778;2.308;2023-05-21T09:57:58;100801.53;;;19.76;37.49
62237;BME280;69163;48.778;2.308;2023-05-21T10:00:27;100794.05;;;19.79;37.50
62237;BME280;69163;48.778;2.308;2023-05-21T10:02:53;100796.95;;;19.63;37.44
62237;BME280;69163;48.778;2.308;2023-05-21T10:05:16;100794.34;;;19.88;37.44
62237;BME280;69163;48.778;2.308;2023-05-21T10:07:43;100803.73;;;19.87;37.45
62237;BME280;69163;48.778;2.308;2023-05-21T10:10:11;100801.85;;;19.68;37.28
62237;BME280;69163;48.778;2.308;2023-05-21T10:12:32;100798.80;;;19.85;37.44
62237;BME280;69163;48.778;2.308;2023-05-21T10:15:00;100800.26;;;19.79;37.05
62237;BME280;69163;48.778;2.308;2023-05-21T10:17:22;100801.58;;;19.37;37.77
62237;BME280;69163;48.778;2.308;2023-05-21T10:19:48;100797.72;;;19.80;37.51
62237;BME280;69163;48.778;2.308;2023-05-21T10:22:13;100805.07;;;19.79;37.52
62237;BME280;69163;48.778;2.308;2023-05-21T10:24:39;100807.38;;;19.80;37.55
62237;BME280;69163;48.778;2.308;2023-05-21T10:27:03;100799.76;;;19.79;37.59
62237;BME280;69163;48.778;2.308;2023-05-21T10:29:30;100797.78;;;19.72;37.68
62237;BME280;69163;48.778;2.308;2023-05-21T10:31:53;100794.00;;;19.81;37.54
62237;BME280;69163;48.778;2.308;2023-05-21T10:34:20;100796.44;;;19.76;37.67
62237;BME280;69163;48.778;2.308;2023-05-21T10:36:45;100794.18;;;19.83;37.94
62237;BME280;69163;48.778;2.308;2023-05-21T10:39:11;100789.15;;;20.24;38.21
62237;BME280;69163;48.778;2.308;2023-05-21T10:41:41;100792.33;;;19.81;38.25
62237;BME280;69163;48.778;2.308;2023-05-21T10:44:09;100792.31;;;19.85;38.21
62237;BME280;69163;48.778;2.308;2023-05-21T10:46:39;100787.42;;;19.83;38.36
62237;BME280;69163;48.778;2.308;2023-05-21T10:49:00;100791.23;;;19.91;38.30
62237;BME280;69163;48.778;2.308;2023-05-21T10:51:21;100786.76;;;19.84;38.48
62237;BME280;69163;48.778;2.308;2023-05-21T10:53:53;100783.40;;;19.91;38.42
62237;BME280;69163;48.778;2.308;2023-05-21T10:56:15;100779.46;;;20.43;38.43
62237;BME280;69163;48.778;2.308;2023-05-21T11:00:58;100783.94;;;19.93;38.48
62237;BME280;69163;48.778;2.308;2023-05-21T11:03:23;100784.01;;;19.93;38.44
62237;BME280;69163;48.778;2.308;2023-05-21T11:05:52;100781.19;;;19.63;38.45
62237;BME280;69163;48.778;2.308;2023-05-21T11:08:21;100773.02;;;19.76;38.55
62237;BME280;69163;48.778;2.308;2023-05-21T11:10:39;100762.00;;;19.95;38.34
62237;BME280;69163;48.778;2.308;2023-05-21T11:13:06;100765.22;;;20.02;38.22
62237;BME280;69163;48.778;2.308;2023-05-21T11:15:30;100759.48;;;19.90;38.34
62237;BME280;69163;48.778;2.308;2023-05-21T11:17:55;100759.29;;;19.89;38.33
62237;BME280;69163;48.778;2.308;2023-05-21T11:20:21;100757.88;;;19.87;38.32
62237;BME280;69163;48.778;2.308;2023-05-21T11:22:46;100759.18;;;19.68;38.23
62237;BME280;69163;48.778;2.308;2023-05-21T11:25:11;100772.04;;;19.81;38.28
62237;BME280;69163;48.778;2.308;2023-05-21T11:27:38;100758.18;;;19.85;38.25
62237;BME280;69163;48.778;2.308;2023-05-21T11:30:04;100751.90;;;19.83;38.24
62237;BME280;69163;48.778;2.308;2023-05-21T11:32:27;100756.32;;;20.27;38.22
62237;BME280;69163;48.778;2.308;2023-05-21T11:34:53;100750.84;;;19.93;38.12
62237;BME280;69163;48.778;2.308;2023-05-21T11:37:25;100746.12;;;19.66;38.14
62237;BME280;69163;48.778;2.308;2023-05-21T11:39:44;100757.53;;;19.95;38.13
62237;BME280;69163;48.778;2.308;2023-05-21T11:42:09;100756.02;;;19.92;38.05
62237;BME280;69163;48.778;2.308;2023-05-21T11:44:38;100753.35;;;19.85;38.15
62237;BME280;69163;48.778;2.308;2023-05-21T11:46:59;100759.35;;;19.93;38.02
62237;BME280;69163;48.778;2.308;2023-05-21T11:49:24;100751.58;;;19.96;37.92
62237;BME280;69163;48.778;2.308;2023-05-21T11:51:50;100744.03;;;19.99;37.84
62237;BME280;69163;48.778;2.308;2023-05-21T11:54:15;100743.50;;;19.97;37.86
62237;BME280;69163;48.778;2.308;2023-05-21T11:56:40;100746.01;;;20.06;37.74
62237;BME280;69163;48.778;2.308;2023-05-21T11:59:14;100756.70;;;20.00;37.78
62237;BME280;69163;48.778;2.308;2023-05-21T12:01:31;100746.00;;;19.97;37.77
62237;BME280;69163;48.778;2.308;2023-05-21T12:03:56;100747.98;;;19.71;37.85
62237;BME280;69163;48.778;2.308;2023-05-21T12:06:25;100740.32;;;19.94;37.87
62237;BME280;69163;48.778;2.308;2023-05-21T12:08:50;100741.61;;;20.02;37.67
62237;BME280;69163;48.778;2.308;2023-05-21T12:11:11;100739.20;;;19.77;36.91
62237;BME280;69163;48.778;2.308;2023-05-21T12:13:37;100739.83;;;19.83;36.51
62237;BME280;69163;48.778;2.308;2023-05-21T12:16:03;100738.26;;;19.64;36.73
62237;BME280;69163;48.778;2.308;2023-05-21T12:18:27;100748.36;;;19.50;36.41
62237;BME280;69163;48.778;2.308;2023-05-21T12:20:53;100743.03;;;19.62;36.60
62237;BME280;69163;48.778;2.308;2023-05-21T12:23:19;100731.36;;;19.10;37.17
62237;BME280;69163;48.778;2.308;2023-05-21T12:25:44;100733.73;;;19.20;37.12
62237;BME280;69163;48.778;2.308;2023-05-21T12:28:10;100733.33;;;19.45;36.66
62237;BME280;69163;48.778;2.308;2023-05-21T12:30:35;100728.42;;;19.48;36.64
62237;BME280;69163;48.778;2.308;2023-05-21T12:33:01;100730.30;;;19.94;36.81
62237;BME280;69163;48.778;2.308;2023-05-21T12:35:27;100732.56;;;19.72;36.35
62237;BME280;69163;48.778;2.308;2023-05-21T12:37:52;100729.78;;;19.09;36.72
62237;BME280;69163;48.778;2.308;2023-05-21T12:40:18;100730.47;;;19.40;36.53
62237;BME280;69163;48.778;2.308;2023-05-21T12:42:43;100727.83;;;19.27;36.53
62237;BME280;69163;48.778;2.308;2023-05-21T12:45:09;100719.84;;;19.24;37.07